Time;durP1;ratioP1;P1;durP2;ratioP2;P2;SDS_P1;SDS_P2;PMS_P1;PMS_P2;Temp;Humidity;BMP_temperature;BMP_pressure;BME280_temperature;BME280_humidity;BME280_pressure;Samples;Min_cycle;Max_cycle;Signal;HPM_P1;HPM_P2
2023/08/25 00:02:25;;;;;;;5.25;3.58;;;;;;;20.87;100.00;100564.25;21072115;28;20071;-62
2023/08/25 00:12:27;;;;;;;4.82;3.60;;;;;;;20.84;100.00;100562.72;21072193;28;20055;-62
2023/08/25 00:22:29;;;;;;;4.78;3.53;;;;;;;20.82;100.00;100553.91;21072260;28;20048;-62
2023/08/25 00:32:31;;;;;;;3.83;3.20;;;;;;;20.82;100.00;100558.50;21070667;28;20048;-62
2023/08/25 00:42:33;;;;;;;4.35;3.50;;;;;;;20.80;100.00;100561.34;21070750;28;20059;-62
2023/08/25 00:52:37;;;;;;;3.50;3.20;;;;;;;20.79;100.00;100567.78;21069086;28;20101;-62
2023/08/25 01:02:39;;;;;;;4.05;3.65;;;;;;;20.80;100.00;100565.94;21067784;28;20063;-62
2023/08/25 01:12:52;;;;;;;4.68;3.67;;;;;;;20.79;100.00;100558.81;21079931;28;20052;-62
2023/08/25 01:23:27;;;;;;;3.55;3.25;;;;;;;20.78;100.00;100566.03;21066216;28;20561;-62
2023/08/25 01:33:30;;;;;;;4.35;3.60;;;;;;;20.77;100.00;100571.59;21098793;28;20059;-62
2023/08/25 01:43:34;;;;;;;3.80;3.40;;;;;;;20.76;100.00;100564.50;21018652;28;20611;-62
2023/08/25 01:53:36;;;;;;;7.57;4.07;;;;;;;20.76;100.00;100575.31;21012832;28;20080;-62
2023/08/25 02:03:38;;;;;;;3.85;3.28;;;;;;;20.76;100.00;100569.91;20994934;28;20102;-62
2023/08/25 02:13:40;;;;;;;5.65;3.88;;;;;;;20.76;100.00;100561.81;20996277;28;20052;-62
2023/08/25 02:23:41;;;;;;;4.78;4.15;;;;;;;20.75;100.00;100562.81;21010128;28;20036;-62
2023/08/25 02:33:43;;;;;;;4.72;4.03;;;;;;;20.73;100.00;100550.28;20994996;28;20056;-62
2023/08/25 02:43:45;;;;;;;4.32;3.92;;;;;;;20.73;100.00;100538.66;21008999;28;20070;-63
2023/08/25 02:53:47;;;;;;;5.32;4.78;;;;;;;20.71;100.00;100538.78;21008306;28;20094;-62
2023/08/25 03:03:49;;;;;;;5.00;4.40;;;;;;;20.70;100.00;100520.88;21007758;28;20058;-62
2023/08/25 03:13:50;;;;;;;4.88;4.28;;;;;;;20.61;100.00;100502.09;20989598;28;20056;-62
2023/08/25 03:23:52;;;;;;;4.95;4.45;;;;;;;20.67;100.00;100502.28;20991182;28;20045;-62
2023/08/25 03:33:54;;;;;;;4.90;4.38;;;;;;;20.68;100.00;100497.72;21094161;28;20051;-61
2023/08/25 03:43:56;;;;;;;6.63;4.25;;;;;;;20.69;100.00;100488.59;21114257;28;20054;-62
2023/08/25 03:53:58;;;;;;;6.57;4.70;;;;;;;20.68;100.00;100492.31;21155414;28;20047;-62
2023/08/25 04:04:01;;;;;;;5.43;4.25;;;;;;;20.67;100.00;100490.63;21155750;28;20212;-62
2023/08/25 04:14:03;;;;;;;6.07;4.82;;;;;;;20.65;100.00;100488.06;21154200;28;20066;-62
2023/08/25 04:24:09;;;;;;;5.15;4.63;;;;;;;20.64;100.00;100480.97;21155120;28;20051;-62
2023/08/25 04:34:11;;;;;;;5.25;4.75;;;;;;;20.62;100.00;100466.75;21081241;28;20109;-62
2023/08/25 04:44:15;;;;;;;6.60;5.47;;;;;;;20.62;100.00;100466.75;21056839;28;20105;-62
2023/08/25 04:54:17;;;;;;;6.07;5.47;;;;;;;20.61;100.00;100462.38;21086994;28;20393;-62
2023/08/25 05:04:21;;;;;;;7.72;5.93;;;;;;;20.62;100.00;100466.75;21085156;28;20127;-62
2023/08/25 05:14:23;;;;;;;6.15;5.57;;;;;;;20.63;100.00;100473.84;21082918;28;20048;-62
2023/08/25 05:24:26;;;;;;;7.43;6.47;;;;;;;20.62;100.00;100485.69;21087590;28;20419;-62
2023/08/25 05:34:31;;;;;;;7.27;4.97;;;;;;;20.65;100.00;100487.22;21083156;28;20043;-62
2023/08/25 05:44:37;;;;;;;5.72;4.88;;;;;;;20.69;100.00;100494.84;21106212;28;20131;-62
2023/08/25 05:54:41;;;;;;;5.43;4.80;;;;;;;20.72;100.00;100507.19;21102091;28;20075;-62
2023/08/25 06:04:43;;;;;;;5.68;4.65;;;;;;;20.71;100.00;100492.81;21071627;28;20072;-61
2023/08/25 06:14:44;;;;;;;5.95;4.95;;;;;;;20.83;100.00;100497.97;21043669;28;20056;-62
2023/08/25 06:24:46;;;;;;;7.68;5.68;;;;;;;20.86;100.00;100484.09;21036844;28;20454;-62
2023/08/25 06:34:51;;;;;;;10.00;7.05;;;;;;;20.94;100.00;100470.59;21050823;28;20060;-61
2023/08/25 06:44:53;;;;;;;8.48;7.38;;;;;;;21.03;100.00;100476.00;21072532;28;20437;-63
2023/08/25 06:54:55;;;;;;;7.13;5.32;;;;;;;21.04;100.00;100469.56;21102929;28;20116;-62
2023/08/25 07:04:56;;;;;;;9.40;7.57;;;;;;;21.06;100.00;100478.38;21100522;28;20046;-62
2023/08/25 07:14:58;;;;;;;7.97;6.72;;;;;;;21.06;100.00;100470.25;21109668;28;20145;-62
2023/08/25 07:25:00;;;;;;;9.68;7.20;;;;;;;21.07;100.00;100469.22;21105273;28;20052;-62
2023/08/25 07:35:04;;;;;;;9.10;6.38;;;;;;;21.05;100.00;100465.84;21078999;28;20051;-62
2023/08/25 07:45:06;;;;;;;6.97;5.77;;;;;;;21.00;100.00;100442.84;21070877;28;20052;-62
2023/08/25 07:55:08;;;;;;;6.68;5.60;;;;;;;21.00;100.00;100469.91;21089187;28;20058;-62
2023/08/25 08:05:10;;;;;;;8.55;6.57;;;;;;;20.93;100.00;100449.94;21063696;28;20048;-62
2023/08/25 08:15:13;;;;;;;9.15;6.28;;;;;;;21.02;100.00;100456.22;21084360;28;20561;-62
2023/08/25 08:25:15;;;;;;;10.35;7.97;;;;;;;20.99;100.00;100465.50;21091428;28;20072;-61
2023/08/25 08:35:17;;;;;;;10.63;8.48;;;;;;;20.95;100.00;100482.25;21113595;28;20095;-62
2023/08/25 08:45:20;;;;;;;11.57;9.48;;;;;;;20.93;100.00;100476.16;21076573;28;20063;-62
2023/08/25 08:55:23;;;;;;;10.35;8.02;;;;;;;20.93;100.00;100479.72;21093608;28;20055;-61
2023/08/25 09:05:30;;;;;;;12.80;8.20;;;;;;;20.99;100.00;100479.03;21102781;28;20063;-61
2023/08/25 09:15:39;;;;;;;12.75;9.50;;;;;;;21.05;100.00;100504.59;21085809;28;20612;-62
2023/08/25 09:25:41;;;;;;;13.38;10.02;;;;;;;21.05;100.00;100511.84;21102467;28;20055;-61
2023/08/25 09:35:44;;;;;;;12.38;10.32;;;;;;;21.04;100.00;100502.03;21109912;28;20500;-61
2023/08/25 09:45:46;;;;;;;13.63;9.88;;;;;;;21.04;100.00;100483.09;21087829;28;20466;-60
2023/08/25 09:55:49;;;;;;;13.45;11.23;;;;;;;21.04;100.00;100492.09;21084702;28;20052;-61
2023/08/25 10:05:51;;;;;;;13.15;10.70;;;;;;;20.99;100.00;100465.50;21080110;28;20165;-60
2023/08/25 10:15:53;;;;;;;13.55;10.10;;;;;;;21.09;100.00;100499.69;21082938;28;20052;-62
2023/08/25 10:25:54;;;;;;;15.88;12.20;;;;;;;21.10;100.00;100496.81;21126281;27;20506;-62
2023/08/25 10:35:56;;;;;;;11.70;9.52;;;;;;;21.17;100.00;100490.72;21081579;28;20534;-61
2023/08/25 10:46:02;;;;;;;14.13;10.52;;;;;;;21.23;100.00;100479.22;21076230;28;20052;-61
2023/08/25 10:56:21;;;;;;;13.15;11.15;;;;;;;21.34;100.00;100475.34;21076432;28;20151;-61
2023/08/25 11:06:53;;;;;;;12.73;9.63;;;;;;;21.35;100.00;100466.22;21101979;28;20055;-61
2023/08/25 11:16:59;;;;;;;10.55;8.50;;;;;;;21.41;100.00;100470.94;21127761;28;20508;-61
2023/08/25 11:27:11;;;;;;;10.38;9.30;;;;;;;21.44;100.00;100454.34;21068053;28;20059;-61
2023/08/25 11:37:14;;;;;;;8.52;7.53;;;;;;;21.47;100.00;100458.59;21083684;28;20055;-62
2023/08/25 11:47:16;;;;;;;8.70;7.13;;;;;;;21.47;100.00;100443.16;21073685;28;20055;-61
2023/08/25 11:57:18;;;;;;;7.88;7.03;;;;;;;21.48;100.00;100455.69;21097222;28;20059;-61
2023/08/25 12:07:24;;;;;;;8.38;6.28;;;;;;;21.50;100.00;100444.69;21081670;28;20186;-61
2023/08/25 12:17:27;;;;;;;6.70;6.10;;;;;;;21.49;100.00;100464.69;21101859;28;20044;-62
2023/08/25 12:27:29;;;;;;;6.57;5.88;;;;;;;21.50;100.00;100452.81;21116677;28;20048;-61
2023/08/25 12:37:31;;;;;;;5.15;4.38;;;;;;;21.54;100.00;100443.34;21086469;28;20060;-62
2023/08/25 12:47:33;;;;;;;5.05;4.45;;;;;;;21.52;100.00;100443.50;21079031;28;20063;-62
2023/08/25 12:57:35;;;;;;;4.85;4.15;;;;;;;21.52;100.00;100429.97;21095350;28;20070;-62
2023/08/25 13:07:38;;;;;;;4.97;3.67;;;;;;;21.48;100.00;100427.78;21095649;28;20047;-62
2023/08/25 13:17:40;;;;;;;7.75;3.75;;;;;;;21.44;100.00;100425.41;21111336;28;20517;-61
2023/08/25 13:27:43;;;;;;;4.07;3.35;;;;;;;21.40;100.00;100393.44;21133707;28;20587;-62
2023/08/25 13:37:44;;;;;;;6.25;3.45;;;;;;;21.40;100.00;100388.00;21090306;28;20141;-62
2023/08/25 13:47:46;;;;;;;8.85;3.78;;;;;;;21.36;100.00;100386.66;21126481;28;20059;-63
2023/08/25 13:57:48;;;;;;;4.70;2.85;;;;;;;21.30;100.00;100386.34;21090724;28;20098;-62
2023/08/25 14:07:50;;;;;;;12.02;4.05;;;;;;;21.27;100.00;100394.81;21115303;28;20558;-62
2023/08/25 14:17:52;;;;;;;5.53;3.50;;;;;;;21.25;100.00;100380.59;21106263;28;20121;-62
2023/08/25 14:27:56;;;;;;;5.97;3.80;;;;;;;21.27;100.00;100356.03;21090292;28;20050;-62
2023/08/25 14:38:00;;;;;;;6.18;5.00;;;;;;;21.34;100.00;100384.13;21111759;28;20157;-63
2023/08/25 14:48:01;;;;;;;6.07;5.47;;;;;;;21.34;100.00;100386.00;21062330;28;20039;-62
2023/08/25 14:58:04;;;;;;;7.97;6.07;;;;;;;21.35;100.00;100369.56;21138451;28;20427;-62
2023/08/25 15:08:06;;;;;;;6.75;5.78;;;;;;;21.36;100.00;100381.25;21069638;28;20059;-64
2023/08/25 15:18:07;;;;;;;8.57;7.20;;;;;;;21.35;100.00;100388.50;21082059;28;20053;-67
2023/08/25 15:28:09;;;;;;;8.80;7.20;;;;;;;21.35;100.00;100376.84;21090747;28;20134;-65
2023/08/25 15:38:11;;;;;;;9.10;8.13;;;;;;;21.34;100.00;100356.22;21109981;28;20423;-66
2023/08/25 15:48:14;;;;;;;9.18;8.27;;;;;;;21.36;100.00;100363.13;21087574;28;20067;-65
2023/08/25 15:58:17;;;;;;;13.30;11.97;;;;;;;21.39;100.00;100348.41;21105748;28;20062;-65
2023/08/25 16:08:19;;;;;;;13.23;11.35;;;;;;;21.40;100.00;100328.44;21112734;28;20043;-66
2023/08/25 16:18:20;;;;;;;11.10;9.80;;;;;;;21.39;100.00;100333.00;21086753;28;20561;-66
2023/08/25 16:28:22;;;;;;;11.18;10.13;;;;;;;21.43;100.00;100328.94;21097871;28;20043;-65
2023/08/25 16:38:24;;;;;;;11.88;9.80;;;;;;;21.46;100.00;100327.75;21111595;28;20500;-64
2023/08/25 16:48:26;;;;;;;10.80;9.70;;;;;;;21.42;100.00;100321.00;21090568;28;20408;-64
2023/08/25 16:58:28;;;;;;;10.02;8.82;;;;;;;21.44;100.00;100337.91;21102268;28;20051;-65
2023/08/25 17:08:31;;;;;;;10.07;8.27;;;;;;;21.44;100.00;100354.16;21101134;28;20048;-63
2023/08/25 17:18:33;;;;;;;6.90;6.20;;;;;;;21.44;100.00;100359.56;21096078;28;20059;-63
2023/08/25 17:28:35;;;;;;;5.90;5.30;;;;;;;21.43;100.00;100360.59;21091660;28;20511;-63
2023/08/25 17:38:36;;;;;;;5.43;4.93;;;;;;;21.43;100.00;100366.88;21093739;28;20043;-63
2023/08/25 17:48:38;;;;;;;5.63;4.43;;;;;;;21.43;100.00;100364.16;21090259;28;20051;-62
2023/08/25 17:58:40;;;;;;;4.68;4.28;;;;;;;21.46;100.00;100378.38;21117106;28;20044;-63
2023/08/25 18:08:42;;;;;;;5.13;4.50;;;;;;;21.43;100.00;100387.66;21100252;28;20475;-63
2023/08/25 18:18:45;;;;;;;4.95;4.05;;;;;;;21.42;100.00;100385.97;21104760;27;20483;-64
2023/08/25 18:28:49;;;;;;;4.70;4.30;;;;;;;21.37;100.00;100400.03;21111672;28;20048;-63
2023/08/25 18:38:51;;;;;;;4.32;3.88;;;;;;;21.34;100.00;100415.78;21085917;28;20373;-64
2023/08/25 18:48:53;;;;;;;5.03;4.22;;;;;;;21.30;100.00;100421.53;21081796;28;20051;-64
2023/08/25 18:58:55;;;;;;;4.15;3.78;;;;;;;21.25;100.00;100426.63;21151841;28;20168;-64
2023/08/25 19:08:56;;;;;;;4.63;3.83;;;;;;;21.24;100.00;100433.06;21148989;28;20051;-64
2023/08/25 19:18:58;;;;;;;4.20;3.80;;;;;;;21.22;100.00;100440.50;21142315;28;20052;-64
2023/08/25 19:29:00;;;;;;;4.20;3.80;;;;;;;21.18;100.00;100436.41;21152056;28;20059;-64
2023/08/25 19:39:02;;;;;;;6.22;4.93;;;;;;;21.16;100.00;100435.75;21103999;28;20051;-64
2023/08/25 19:49:04;;;;;;;5.20;4.70;;;;;;;21.15;100.00;100432.19;21103741;28;20085;-64
2023/08/25 19:59:06;;;;;;;7.65;5.55;;;;;;;21.13;100.00;100436.06;21088539;28;20055;-64
2023/08/25 20:09:11;;;;;;;6.40;5.70;;;;;;;21.06;100.00;100441.34;21081424;28;20143;-64
2023/08/25 20:19:12;;;;;;;6.35;5.75;;;;;;;21.10;100.00;100447.25;21097414;28;20051;-64
2023/08/25 20:29:14;;;;;;;6.25;5.65;;;;;;;21.08;100.00;100433.03;21168653;28;20043;-64
2023/08/25 20:39:16;;;;;;;6.50;5.72;;;;;;;21.06;100.00;100446.75;21170650;27;20062;-64
2023/08/25 20:49:18;;;;;;;6.22;5.63;;;;;;;21.05;100.00;100449.63;21147626;28;20507;-64
2023/08/25 20:59:19;;;;;;;7.10;6.50;;;;;;;21.00;100.00;100456.38;21159445;27;20044;-64
2023/08/25 21:09:21;;;;;;;7.10;6.45;;;;;;;20.92;100.00;100459.09;21155361;28;20059;-64
2023/08/25 21:19:23;;;;;;;7.07;6.47;;;;;;;20.96;100.00;100473.97;21176511;27;20123;-64
2023/08/25 21:29:25;;;;;;;6.97;6.38;;;;;;;20.95;100.00;100472.28;21167412;27;20548;-64
2023/08/25 21:39:26;;;;;;;7.55;6.75;;;;;;;20.94;100.00;100476.00;21139124;28;20048;-64
2023/08/25 21:49:28;;;;;;;7.15;6.45;;;;;;;20.93;100.00;100479.72;21079434;28;20667;-64
2023/08/25 21:59:30;;;;;;;7.45;6.75;;;;;;;20.93;100.00;100476.16;21128983;28;20047;-64
2023/08/25 22:09:32;;;;;;;7.47;6.70;;;;;;;20.92;100.00;100483.44;21156197;28;20065;-64
2023/08/25 22:19:34;;;;;;;7.35;6.65;;;;;;;20.93;100.00;100487.84;21158307;28;20044;-64
2023/08/25 22:29:35;;;;;;;6.93;6.22;;;;;;;20.91;100.00;100479.03;21160138;28;20048;-64
2023/08/25 22:39:37;;;;;;;7.63;6.50;;;;;;;20.91;100.00;100484.44;21121770;28;20077;-64
2023/08/25 22:49:39;;;;;;;6.18;5.57;;;;;;;20.89;100.00;100489.19;21117012;28;20059;-64
2023/08/25 22:59:41;;;;;;;6.32;5.72;;;;;;;20.90;100.00;100479.19;21128852;28;20047;-63
2023/08/25 23:09:42;;;;;;;6.57;5.18;;;;;;;20.89;100.00;100472.94;21141496;28;20101;-64
2023/08/25 23:19:44;;;;;;;6.00;5.43;;;;;;;20.89;100.00;100496.44;21077892;28;20060;-64
2023/08/25 23:29:46;;;;;;;5.55;5.05;;;;;;;20.88;100.00;100492.91;21130652;28;20047;-64
2023/08/25 23:39:47;;;;;;;5.60;5.05;;;;;;;20.88;100.00;100494.75;21155980;28;20059;-64
2023/08/25 23:49:49;;;;;;;4.78;4.38;;;;;;;20.85;100.00;100488.66;21125023;28;20055;-64
2023/08/25 23:59:54;;;;;;;4.88;4.47;;;;;;;20.84;100.00;100494.25;21141380;28;20047;-64
